createdAt,value
2019-02-28T00:01:00.918Z,5.49
2019-02-28T00:02:04.275Z,5.48
2019-02-28T00:03:08.426Z,5.37
2019-02-28T00:04:11.658Z,5.37
2019-02-28T00:05:15.189Z,5.32
2019-02-28T00:06:19.419Z,5.32
2019-02-28T00:07:23.132Z,5.33
2019-02-28T00:08:25.946Z,5.47
2019-02-28T00:09:28.875Z,5.49
2019-02-28T00:10:31.722Z,5.58
2019-02-28T00:11:36.127Z,5.53
2019-02-28T00:12:39.077Z,5.43
2019-02-28T00:13:52.299Z,5.43
2019-02-28T00:14:54.170Z,5.30
2019-02-28T00:16:00.206Z,5.20
2019-02-28T00:17:02.875Z,5.16
2019-02-28T00:18:09.878Z,4.60
2019-02-28T00:19:13.892Z,4.60
2019-02-28T00:20:17.386Z,4.54
2019-02-28T00:21:20.284Z,4.62
2019-02-28T00:22:23.188Z,4.62
2019-02-28T00:23:27.362Z,4.59
2019-02-28T00:24:30.781Z,4.60
2019-02-28T00:25:38.039Z,4.41
2019-02-28T00:26:46.487Z,4.51
2019-02-28T00:27:45.465Z,4.51
2019-02-28T00:28:48.434Z,4.31
2019-02-28T00:29:54.212Z,4.24
2019-02-28T00:30:57.238Z,4.24
2019-02-28T00:32:00.610Z,4.58
2019-02-28T00:33:03.507Z,4.52
2019-02-28T00:34:07.874Z,4.45
2019-02-28T00:35:13.514Z,4.44
2019-02-28T00:36:16.319Z,4.61
2019-02-28T00:37:19.847Z,4.50
2019-02-28T00:38:22.954Z,4.33
2019-02-28T00:39:26.052Z,4.43
2019-02-28T00:40:28.866Z,4.43
2019-02-28T00:41:31.690Z,4.66
2019-02-28T00:42:36.372Z,4.54
2019-02-28T00:43:39.172Z,4.57
2019-02-28T00:44:42.301Z,4.57
2019-02-28T00:45:45.219Z,4.60
2019-02-28T00:46:48.287Z,4.88
2019-02-28T00:47:51.571Z,4.88
2019-02-28T00:48:54.359Z,4.86
2019-02-28T00:49:57.166Z,4.86
2019-02-28T00:51:00.316Z,4.73
2019-02-28T00:52:03.281Z,4.68
2019-02-28T00:53:07.294Z,4.63
2019-02-28T00:54:10.197Z,4.62
2019-02-28T00:56:38.917Z,4.65
2019-02-28T00:57:41.950Z,4.42
2019-02-28T00:58:44.768Z,4.42
2019-02-28T00:59:47.607Z,3.98
2019-02-28T01:00:56.711Z,3.97
2019-02-28T01:02:00.037Z,3.97
2019-02-28T01:03:04.319Z,4.06
2019-02-28T01:04:07.464Z,4.06
2019-02-28T01:05:10.458Z,4.08
2019-02-28T01:06:16.476Z,4.08
2019-02-28T01:07:22.321Z,3.91
2019-02-28T01:08:25.500Z,3.80
2019-02-28T01:09:31.839Z,3.77
2019-02-28T01:10:38.812Z,3.77
2019-02-28T01:11:39.127Z,3.87
2019-02-28T01:12:42.007Z,3.81
2019-02-28T01:13:44.834Z,4.06
2019-02-28T01:14:51.089Z,4.16
2019-02-28T01:15:53.868Z,4.09
2019-02-28T01:16:56.739Z,4.12
2019-02-28T01:18:01.867Z,3.97
2019-02-28T01:19:10.115Z,4.03
2019-02-28T01:20:16.083Z,3.83
2019-02-28T01:21:23.495Z,3.81
2019-02-28T01:22:26.990Z,3.84
2019-02-28T01:23:38.487Z,3.93
2019-02-28T01:24:39.578Z,4.08
2019-02-28T01:25:42.508Z,4.09
2019-02-28T01:26:46.616Z,4.07
2019-02-28T01:27:52.440Z,4.01
2019-02-28T01:29:01.469Z,3.77
2019-02-28T01:30:02.445Z,3.51
2019-02-28T01:31:05.389Z,3.21
2019-02-28T01:32:15.686Z,3.16
2019-02-28T01:33:24.431Z,3.16
2019-02-28T01:34:22.584Z,3.13
2019-02-28T01:35:25.879Z,3.21
2019-02-28T01:36:29.254Z,3.21
2019-02-28T01:37:34.908Z,3.79
2019-02-28T01:38:37.828Z,4.04
2019-02-28T01:39:44.177Z,4.04
2019-02-28T01:40:47.167Z,4.09
2019-02-28T01:41:50.139Z,4.10
2019-02-28T01:42:54.872Z,4.16
2019-02-28T01:44:01.717Z,4.16
2019-02-28T01:45:07.081Z,4.31
2019-02-28T01:46:10.279Z,4.19
2019-02-28T01:47:13.330Z,4.19
2019-02-28T01:48:18.743Z,3.83
2019-02-28T01:49:28.577Z,3.83
2019-02-28T01:50:30.511Z,3.60
2019-02-28T01:51:36.606Z,3.45
2019-02-28T01:52:38.154Z,3.45
2019-02-28T01:53:40.932Z,3.38
2019-02-28T01:54:43.894Z,3.38
2019-02-28T01:55:46.773Z,3.38
2019-02-28T01:56:52.023Z,3.54
2019-02-28T01:57:54.883Z,3.36
2019-02-28T01:58:57.987Z,3.36
2019-02-28T02:00:00.790Z,3.63
2019-02-28T02:01:04.091Z,3.70
2019-02-28T02:02:08.444Z,3.47
2019-02-28T02:03:11.275Z,3.43
2019-02-28T02:04:16.316Z,3.30
2019-02-28T02:05:22.151Z,3.30
2019-02-28T02:06:27.804Z,3.07
2019-02-28T02:07:33.121Z,3.07
2019-02-28T02:08:38.579Z,2.90
2019-02-28T02:09:42.640Z,2.89
2019-02-28T02:10:46.252Z,2.94
2019-02-28T02:11:49.542Z,3.12
2019-02-28T02:12:52.362Z,3.12
2019-02-28T02:13:55.194Z,3.30
2019-02-28T02:15:02.268Z,3.36
2019-02-28T02:16:07.327Z,3.41
2019-02-28T02:17:10.555Z,3.39
2019-02-28T02:18:13.518Z,3.51
2019-02-28T02:19:18.484Z,3.54
2019-02-28T02:20:23.435Z,3.50
2019-02-28T02:21:25.193Z,3.34
2019-02-28T02:22:28.110Z,3.30
2019-02-28T02:23:32.348Z,3.45
2019-02-28T02:24:35.367Z,3.45
2019-02-28T02:25:38.234Z,3.49
2019-02-28T02:26:42.330Z,3.56
2019-02-28T02:27:46.064Z,3.56
2019-02-28T02:28:52.119Z,3.56
2019-02-28T02:29:55.653Z,3.58
2019-02-28T02:30:58.492Z,3.69
2019-02-28T02:32:02.614Z,3.67
2019-02-28T02:33:05.498Z,3.60
2019-02-28T02:34:11.401Z,3.54
2019-02-28T02:35:14.201Z,3.32
2019-02-28T02:36:17.758Z,3.37
2019-02-28T02:37:20.835Z,3.37
2019-02-28T02:38:23.662Z,3.17
2019-02-28T02:39:26.546Z,3.13
2019-02-28T02:40:29.344Z,3.10
2019-02-28T02:41:33.550Z,3.12
2019-02-28T02:42:36.872Z,3.12
2019-02-28T02:43:39.723Z,3.21
2019-02-28T02:44:42.598Z,3.64
2019-02-28T02:45:45.392Z,3.75
2019-02-28T02:46:52.182Z,3.87
2019-02-28T02:47:53.172Z,3.85
2019-02-28T02:48:57.520Z,3.85
2019-02-28T02:50:00.736Z,3.81
2019-02-28T02:51:10.714Z,3.64
2019-02-28T02:52:11.575Z,3.31
2019-02-28T02:53:14.410Z,3.29
2019-02-28T02:54:19.931Z,3.16
2019-02-28T02:55:27.785Z,3.16
2019-02-28T02:56:26.468Z,3.19
2019-02-28T02:57:29.297Z,3.53
2019-02-28T02:58:34.888Z,3.65
2019-02-28T02:59:39.438Z,3.49
2019-02-28T03:00:49.491Z,3.16
2019-02-28T03:01:46.851Z,2.87
2019-02-28T03:02:49.684Z,2.78
2019-02-28T03:03:52.495Z,2.84
2019-02-28T03:04:58.508Z,2.82
2019-02-28T03:05:59.865Z,2.70
2019-02-28T03:07:04.722Z,2.57
2019-02-28T03:08:10.010Z,2.63
2019-02-28T03:09:14.604Z,2.71
2019-02-28T03:10:19.374Z,2.61
2019-02-28T03:11:24.675Z,2.47
2019-02-28T03:12:31.112Z,2.36
2019-02-28T03:13:30.965Z,2.44
2019-02-28T03:14:34.066Z,2.51
2019-02-28T03:15:36.920Z,2.58
2019-02-28T03:16:39.736Z,2.58
2019-02-28T03:17:46.498Z,2.36
2019-02-28T03:18:47.208Z,2.30
2019-02-28T03:19:50.513Z,2.30
2019-02-28T03:20:53.322Z,2.31
2019-02-28T03:21:56.128Z,2.43
2019-02-28T03:23:03.164Z,2.60
2019-02-28T03:24:06.581Z,2.81
2019-02-28T03:25:09.469Z,2.97
2019-02-28T03:26:12.303Z,2.87
2019-02-28T03:27:19.208Z,3.00
2019-02-28T03:28:19.809Z,3.08
2019-02-28T03:29:22.677Z,3.07
2019-02-28T03:30:28.752Z,3.11
2019-02-28T03:31:30.274Z,3.02
2019-02-28T03:32:41.964Z,2.48
2019-02-28T03:33:37.950Z,2.01
2019-02-28T03:34:41.274Z,1.98
2019-02-28T03:35:44.433Z,2.03
2019-02-28T03:36:55.481Z,2.03
2019-02-28T03:37:52.076Z,2.40
2019-02-28T03:38:54.977Z,2.54
2019-02-28T03:40:04.223Z,2.56
2019-02-28T03:41:02.806Z,2.56
2019-02-28T03:42:05.666Z,2.66
2019-02-28T03:43:08.753Z,2.70
2019-02-28T03:44:19.774Z,2.74
2019-02-28T03:45:16.126Z,2.77
2019-02-28T03:46:19.009Z,2.77
2019-02-28T03:47:23.858Z,2.88
2019-02-28T03:48:26.677Z,2.76
2019-02-28T03:49:29.853Z,2.76
2019-02-28T03:50:33.070Z,2.65
2019-02-28T03:51:36.241Z,2.73
2019-02-28T03:52:43.779Z,2.73
2019-02-28T03:53:43.471Z,2.69
2019-02-28T03:54:46.381Z,2.69
2019-02-28T03:55:50.701Z,2.87
2019-02-28T03:56:53.711Z,2.87
2019-02-28T03:58:04.388Z,2.82
2019-02-28T03:59:01.442Z,2.89
2019-02-28T04:00:06.497Z,2.96
2019-02-28T04:01:10.337Z,3.01
2019-02-28T04:02:20.771Z,2.93
2019-02-28T04:03:18.342Z,2.93
2019-02-28T04:04:21.286Z,2.83
2019-02-28T04:05:28.092Z,2.75
2019-02-28T04:06:30.943Z,2.80
2019-02-28T04:07:34.772Z,2.77
2019-02-28T04:08:37.924Z,2.88
2019-02-28T04:09:44.123Z,2.88
2019-02-28T04:10:45.625Z,2.92
2019-02-28T04:11:48.396Z,2.92
2019-02-28T04:12:51.229Z,2.86
2019-02-28T04:13:56.071Z,2.61
2019-02-28T04:14:59.070Z,2.76
2019-02-28T04:16:08.548Z,2.83
2019-02-28T04:17:07.499Z,2.83
2019-02-28T04:18:10.655Z,2.97
2019-02-28T04:19:13.833Z,3.02
2019-02-28T04:20:16.714Z,2.74
2019-02-28T04:21:20.096Z,2.39
2019-02-28T04:22:23.303Z,2.39
2019-02-28T04:23:26.988Z,2.20
2019-02-28T04:24:29.872Z,2.20
2019-02-28T04:25:33.064Z,2.22
2019-02-28T04:26:36.065Z,2.29
2019-02-28T04:27:41.987Z,2.37
2019-02-28T04:28:44.867Z,2.37
2019-02-28T04:29:47.747Z,2.70
2019-02-28T04:30:50.574Z,2.81
2019-02-28T04:31:53.497Z,2.81
2019-02-28T04:33:01.136Z,2.74
2019-02-28T04:34:01.236Z,2.73
2019-02-28T04:35:04.139Z,2.73
2019-02-28T04:36:06.919Z,2.59
2019-02-28T04:37:09.806Z,2.43
2019-02-28T04:38:13.032Z,2.26
2019-02-28T04:39:16.318Z,2.26
2019-02-28T04:40:19.486Z,2.24
2019-02-28T04:41:22.470Z,2.21
2019-02-28T04:42:29.933Z,2.21
2019-02-28T04:43:32.745Z,2.19
2019-02-28T04:44:35.657Z,2.19
2019-02-28T04:45:38.972Z,2.16
2019-02-28T04:46:42.096Z,2.20
2019-02-28T04:47:44.890Z,2.22
2019-02-28T04:48:48.410Z,2.17
2019-02-28T04:49:53.472Z,2.11
2019-02-28T04:50:56.418Z,2.11
2019-02-28T04:52:05.257Z,2.14
2019-02-28T04:53:08.100Z,2.25
2019-02-28T04:54:10.878Z,2.10
2019-02-28T04:55:13.692Z,2.10
2019-02-28T04:56:17.438Z,2.10
2019-02-28T04:57:20.694Z,2.03
2019-02-28T04:58:25.911Z,2.12
2019-02-28T04:59:31.631Z,2.12
2019-02-28T05:00:37.822Z,2.14
2019-02-28T05:01:40.693Z,2.08
2019-02-28T05:02:43.497Z,2.08
2019-02-28T05:03:46.308Z,2.01
2019-02-28T05:04:49.378Z,2.09
2019-02-28T05:05:52.268Z,2.10
2019-02-28T05:06:57.322Z,2.18
2019-02-28T05:08:04.651Z,2.16
2019-02-28T05:09:05.631Z,2.05
2019-02-28T05:10:08.454Z,1.98
2019-02-28T05:11:11.619Z,1.76
2019-02-28T05:12:14.443Z,1.40
2019-02-28T05:13:17.263Z,1.06
2019-02-28T05:14:23.394Z,0.98
2019-02-28T05:15:24.549Z,1.12
2019-02-28T05:16:28.931Z,1.32
2019-02-28T05:17:32.039Z,1.49
2019-02-28T05:18:34.879Z,1.38
2019-02-28T05:19:37.689Z,1.22
2019-02-28T05:20:45.986Z,1.23
2019-02-28T05:21:47.425Z,1.12
2019-02-28T05:22:50.601Z,1.15
2019-02-28T05:23:53.407Z,1.22
2019-02-28T05:24:56.290Z,1.25
2019-02-28T05:25:59.092Z,1.49
2019-02-28T05:27:04.144Z,1.49
2019-02-28T05:28:07.542Z,1.66
2019-02-28T05:29:11.947Z,1.66
2019-02-28T05:30:19.271Z,1.53
2019-02-28T05:31:19.872Z,1.65
2019-02-28T05:32:23.115Z,1.80
2019-02-28T05:33:25.929Z,1.94
2019-02-28T05:34:28.750Z,1.96
2019-02-28T05:35:31.930Z,2.00
2019-02-28T05:36:38.038Z,2.03
2019-02-28T05:37:46.523Z,2.04
2019-02-28T05:38:49.463Z,2.02
2019-02-28T05:39:52.312Z,2.01
2019-02-28T05:40:55.629Z,2.01
2019-02-28T05:41:58.689Z,1.93
2019-02-28T05:43:05.374Z,1.83
2019-02-28T05:44:08.644Z,1.77
2019-02-28T05:45:15.843Z,1.77
2019-02-28T05:46:20.362Z,1.60
2019-02-28T05:47:25.951Z,1.48
2019-02-28T05:48:28.417Z,1.35
2019-02-28T05:49:31.188Z,1.35
2019-02-28T05:50:36.667Z,1.55
2019-02-28T05:51:39.540Z,1.71
2019-02-28T05:52:42.427Z,1.86
2019-02-28T05:53:45.544Z,1.96
2019-02-28T05:54:50.537Z,1.91
2019-02-28T05:55:53.224Z,1.91
2019-02-28T05:56:56.082Z,1.98
2019-02-28T05:57:58.981Z,2.02
2019-02-28T05:59:01.789Z,2.02
2019-02-28T06:00:05.191Z,2.00
2019-02-28T06:01:08.778Z,2.00
2019-02-28T06:02:12.594Z,1.58
2019-02-28T06:03:15.599Z,1.58
2019-02-28T06:04:18.409Z,1.63
2019-02-28T06:05:21.216Z,1.63
2019-02-28T06:06:24.429Z,1.76
2019-02-28T06:07:28.742Z,1.76
2019-02-28T06:08:39.171Z,1.77
2019-02-28T06:09:36.529Z,1.68
2019-02-28T06:10:43.562Z,1.72
2019-02-28T06:11:46.740Z,1.86
2019-02-28T06:12:49.688Z,1.87
2019-02-28T06:13:53.473Z,1.88
2019-02-28T06:15:01.869Z,1.85
2019-02-28T06:16:01.315Z,1.93
2019-02-28T06:17:04.121Z,1.93
2019-02-28T06:18:07.440Z,1.59
2019-02-28T06:19:12.506Z,1.58
2019-02-28T06:20:17.864Z,1.67
2019-02-28T06:21:23.444Z,1.67
2019-02-28T06:22:25.810Z,1.73
2019-02-28T06:23:29.413Z,1.60
2019-02-28T06:24:32.607Z,1.55
2019-02-28T06:25:35.773Z,1.50
2019-02-28T06:26:38.627Z,1.50
2019-02-28T06:27:42.317Z,1.57
2019-02-28T06:28:46.089Z,1.65
2019-02-28T06:29:48.983Z,1.77
2019-02-28T06:43:53.035Z,1.94
2019-02-28T06:44:58.756Z,1.82
2019-02-28T06:46:00.174Z,1.81
2019-02-28T06:47:05.298Z,1.81
2019-02-28T06:48:08.187Z,1.98
2019-02-28T06:49:14.382Z,2.17
2019-02-28T06:50:17.252Z,2.17
2019-02-28T06:51:20.210Z,2.23
2019-02-28T06:52:25.271Z,2.15
2019-02-28T06:53:31.059Z,2.15
2019-02-28T06:54:39.868Z,2.20
2019-02-28T06:55:52.628Z,2.32
2019-02-28T06:56:55.617Z,2.46
2019-02-28T06:58:01.708Z,2.46
2019-02-28T06:59:05.109Z,2.36
2019-02-28T07:00:13.500Z,2.43
2019-02-28T07:01:19.229Z,2.43
2019-02-28T07:02:28.434Z,2.39
2019-02-28T07:03:29.982Z,2.27
2019-02-28T07:04:32.798Z,2.13
2019-02-28T07:05:35.615Z,2.13
2019-02-28T07:06:38.929Z,2.24
2019-02-28T07:07:41.794Z,2.26
2019-02-28T07:08:44.733Z,2.36
2019-02-28T07:09:47.549Z,2.50
2019-02-28T07:10:50.461Z,-140.42
2019-02-28T07:11:55.774Z,-140.42
2019-02-28T07:13:03.986Z,-58.48
2019-02-28T07:14:05.269Z,4.22
2019-02-28T07:15:08.214Z,4.22
2019-02-28T07:16:12.224Z,4.22
2019-02-28T07:17:15.930Z,4.47
2019-02-28T07:18:20.530Z,-57.18
2019-02-28T07:19:26.405Z,-140.42
2019-02-28T07:20:30.736Z,3.64
2019-02-28T07:21:34.574Z,3.09
2019-02-28T07:22:39.957Z,2.86
2019-02-28T07:23:42.178Z,3.05
2019-02-28T07:24:48.285Z,3.28
2019-02-28T07:25:52.462Z,3.28
2019-02-28T07:26:55.334Z,3.49
2019-02-28T07:28:01.543Z,3.44
2019-02-28T07:29:05.026Z,3.69
2019-02-28T07:30:07.942Z,3.42
2019-02-28T07:31:10.761Z,3.42
2019-02-28T07:32:13.601Z,3.66
2019-02-28T07:33:16.462Z,3.78
2019-02-28T07:34:21.938Z,3.59
2019-02-28T07:35:23.810Z,3.66
2019-02-28T07:36:30.331Z,3.71
2019-02-28T07:37:33.682Z,3.69
2019-02-28T07:38:39.667Z,4.02
2019-02-28T07:39:45.289Z,4.39
2019-02-28T07:40:49.585Z,4.75
2019-02-28T07:41:54.282Z,4.98
2019-02-28T07:43:01.797Z,4.98
2019-02-28T07:44:11.258Z,5.76
2019-02-28T07:45:14.023Z,5.76
2019-02-28T07:46:17.024Z,6.08
2019-02-28T07:47:22.797Z,6.09
2019-02-28T07:48:28.606Z,6.09
2019-02-28T07:49:36.812Z,6.00
2019-02-28T07:50:37.651Z,5.94
2019-02-28T07:51:40.528Z,6.04
2019-02-28T07:52:50.255Z,6.41
2019-02-28T07:53:50.816Z,6.53
2019-02-28T07:54:56.184Z,6.39
2019-02-28T07:55:59.516Z,6.80
2019-02-28T07:57:02.440Z,6.80
2019-02-28T07:58:08.786Z,7.02
2019-02-28T07:59:11.610Z,7.22
2019-02-28T08:00:18.160Z,7.22
2019-02-28T08:01:30.980Z,7.04
2019-02-28T08:02:27.103Z,7.11
2019-02-28T08:03:29.658Z,7.07
2019-02-28T08:04:32.689Z,7.62
2019-02-28T08:05:35.581Z,7.74
2019-02-28T08:06:41.961Z,7.67
2019-02-28T08:07:50.265Z,7.67
2019-02-28T08:08:51.392Z,7.99
2019-02-28T08:09:54.278Z,8.05
2019-02-28T08:10:57.135Z,8.05
2019-02-28T08:12:02.547Z,8.02
2019-02-28T08:13:05.384Z,8.47
2019-02-28T08:14:09.246Z,8.47
2019-02-28T08:15:13.647Z,8.46
2019-02-28T08:16:16.526Z,8.63
2019-02-28T08:17:19.369Z,8.65
2019-02-28T08:18:22.234Z,8.69
2019-02-28T08:19:28.234Z,8.82
2019-02-28T08:20:35.079Z,8.55
2019-02-28T08:21:43.963Z,8.55
2019-02-28T08:22:42.454Z,9.47
2019-02-28T08:23:45.368Z,9.79
2019-02-28T08:24:49.713Z,10.09
2019-02-28T08:25:54.611Z,10.46
2019-02-28T08:26:57.775Z,10.46
2019-02-28T08:28:01.158Z,10.60
2019-02-28T08:29:07.857Z,10.49
2019-02-28T08:30:11.310Z,10.49
2019-02-28T08:31:15.443Z,9.83
2019-02-28T08:32:20.863Z,10.29
2019-02-28T08:33:26.305Z,10.29
2019-02-28T08:34:31.676Z,10.64
2019-02-28T08:35:36.092Z,10.64
2019-02-28T08:36:46.762Z,11.08
2019-02-28T08:37:45.107Z,11.38
2019-02-28T08:38:48.551Z,11.73
2019-02-28T08:39:51.394Z,12.00
2019-02-28T08:40:57.183Z,12.00
2019-02-28T08:42:04.379Z,12.45
2019-02-28T08:43:06.928Z,12.71
2019-02-28T08:44:09.819Z,12.71
2019-02-28T08:45:12.733Z,12.49
2019-02-28T08:46:17.827Z,12.28
2019-02-28T08:47:21.037Z,12.28
2019-02-28T08:48:31.579Z,12.56
2019-02-28T08:49:42.162Z,12.72
2019-02-28T08:50:41.061Z,12.81
2019-02-28T08:51:44.239Z,12.81
2019-02-28T08:52:48.451Z,12.51
2019-02-28T08:53:52.191Z,12.27
2019-02-28T08:54:59.740Z,12.67
2019-02-28T08:55:59.662Z,12.86
2019-02-28T08:57:09.788Z,12.90
2019-02-28T08:58:13.128Z,13.12
2019-02-28T08:59:20.474Z,13.12
2019-02-28T09:00:20.621Z,13.46
2019-02-28T09:01:26.529Z,13.63
2019-02-28T09:02:30.397Z,13.79
2019-02-28T09:03:36.408Z,13.92
2019-02-28T09:04:41.506Z,13.87
2019-02-28T09:05:44.021Z,13.84
2019-02-28T09:06:48.474Z,14.23
2019-02-28T09:07:52.068Z,13.54
2019-02-28T09:08:56.590Z,13.54
2019-02-28T09:10:01.794Z,13.74
2019-02-28T09:11:06.237Z,14.23
2019-02-28T09:12:11.315Z,13.97
2019-02-28T09:13:14.220Z,13.97
2019-02-28T09:14:17.837Z,13.97
2019-02-28T09:15:21.581Z,14.20
2019-02-28T09:16:30.388Z,14.53
2019-02-28T09:17:33.323Z,14.14
2019-02-28T09:18:36.707Z,14.25
2019-02-28T09:19:39.540Z,14.25
2019-02-28T09:20:45.064Z,14.81
2019-02-28T09:21:52.712Z,15.16
2019-02-28T09:22:52.962Z,14.02
2019-02-28T09:23:58.649Z,14.02
2019-02-28T09:25:05.339Z,14.15
2019-02-28T09:26:08.714Z,14.15
2019-02-28T09:27:12.280Z,14.26
2019-02-28T09:28:15.588Z,14.58
2019-02-28T09:29:22.215Z,14.46
2019-02-28T09:30:26.456Z,15.04
2019-02-28T09:31:29.907Z,14.66
2019-02-28T09:32:36.024Z,14.68
2019-02-28T09:33:39.013Z,15.07
2019-02-28T09:34:46.756Z,15.14
2019-02-28T09:35:49.593Z,15.18
2019-02-28T09:36:56.621Z,14.82
2019-02-28T09:38:00.159Z,14.82
2019-02-28T09:39:01.605Z,15.26
2019-02-28T09:40:07.624Z,15.40
2019-02-28T09:41:13.431Z,15.40
2019-02-28T09:42:16.780Z,15.37
2019-02-28T09:43:19.769Z,14.93
2019-02-28T09:44:31.394Z,16.43
2019-02-28T09:45:39.810Z,16.06
2019-02-28T09:46:40.477Z,16.06
2019-02-28T09:47:43.741Z,16.83
2019-02-28T09:48:46.595Z,15.78
2019-02-28T09:49:49.449Z,15.78
2019-02-28T09:50:57.982Z,15.36
2019-02-28T09:51:56.841Z,15.39
2019-02-28T09:52:59.740Z,15.39
2019-02-28T09:54:02.595Z,14.34
2019-02-28T09:55:05.463Z,14.34
2019-02-28T09:56:09.287Z,14.47
2019-02-28T09:57:15.391Z,14.67
2019-02-28T09:58:20.487Z,14.83
2019-02-28T09:59:23.359Z,14.62
2019-02-28T10:00:27.601Z,13.92
2019-02-28T10:01:30.717Z,13.92
2019-02-28T10:02:33.615Z,13.34
2019-02-28T10:03:37.573Z,13.11
2019-02-28T10:04:44.139Z,13.11
2019-02-28T10:05:47.098Z,12.48
2019-02-28T10:06:52.286Z,12.62
2019-02-28T10:07:55.202Z,12.62
2019-02-28T10:08:59.333Z,12.39
2019-02-28T10:10:02.425Z,12.39
2019-02-28T10:11:07.907Z,12.72
2019-02-28T10:12:12.432Z,12.25
2019-02-28T10:13:18.524Z,12.25
2019-02-28T10:14:21.420Z,12.23
2019-02-28T10:15:24.209Z,12.21
2019-02-28T10:16:27.891Z,12.25
2019-02-28T10:17:33.781Z,12.25
2019-02-28T10:18:38.924Z,12.66
2019-02-28T10:19:45.751Z,13.07
2019-02-28T10:20:45.890Z,13.07
2019-02-28T10:21:52.191Z,12.78
2019-02-28T10:22:53.295Z,12.78
2019-02-28T10:23:58.074Z,12.70
2019-02-28T10:25:03.617Z,12.25
2019-02-28T10:26:05.380Z,12.25
2019-02-28T10:27:08.423Z,12.25
2019-02-28T10:28:11.272Z,12.67
2019-02-28T10:29:14.574Z,13.02
2019-02-28T10:30:17.869Z,12.85
2019-02-28T10:31:35.200Z,12.46
2019-02-28T10:32:30.773Z,12.46
2019-02-28T10:33:33.610Z,12.63
2019-02-28T10:34:38.539Z,13.10
2019-02-28T10:35:44.225Z,13.00
2019-02-28T10:36:47.757Z,13.09
2019-02-28T10:37:57.330Z,13.09
2019-02-28T10:38:56.715Z,13.27
2019-02-28T10:39:59.623Z,13.55
2019-02-28T10:41:02.861Z,12.44
2019-02-28T10:42:09.422Z,12.21
2019-02-28T10:43:16.499Z,12.33
2019-02-28T10:44:22.321Z,12.33
2019-02-28T10:45:25.929Z,12.09
2019-02-28T10:46:28.916Z,12.09
2019-02-28T10:47:31.806Z,12.99
2019-02-28T10:48:35.343Z,12.80
2019-02-28T10:49:39.554Z,12.37
2019-02-28T10:50:42.489Z,12.37
2019-02-28T10:51:49.543Z,12.21
2019-02-28T10:52:50.268Z,12.46
2019-02-28T10:53:54.459Z,12.59
2019-02-28T10:54:57.465Z,12.81
2019-02-28T10:56:02.936Z,13.02
2019-02-28T10:57:07.207Z,13.10
2019-02-28T10:58:12.486Z,12.77
2019-02-28T10:59:16.160Z,12.71
2019-02-28T11:00:20.199Z,12.44
2019-02-28T11:01:25.602Z,12.22
2019-02-28T11:02:29.101Z,12.19
2019-02-28T11:03:33.085Z,12.18
2019-02-28T11:04:42.836Z,11.85
2019-02-28T11:05:41.197Z,11.85
2019-02-28T11:06:46.873Z,11.69
2019-02-28T11:07:50.061Z,11.70
2019-02-28T11:09:01.094Z,11.70
2019-02-28T11:10:02.023Z,11.65
2019-02-28T11:11:07.291Z,11.82
2019-02-28T11:12:09.836Z,11.75
2019-02-28T11:13:15.151Z,12.11
2019-02-28T11:14:20.269Z,12.45
2019-02-28T11:15:23.590Z,12.17
2019-02-28T11:16:27.596Z,12.17
2019-02-28T11:17:35.338Z,12.63
2019-02-28T11:18:38.356Z,12.16
2019-02-28T11:19:41.143Z,12.16
2019-02-28T11:20:45.157Z,12.77
2019-02-28T11:21:48.318Z,13.06
2019-02-28T11:22:57.118Z,13.15
2019-02-28T11:23:59.959Z,13.31
2019-02-28T11:25:03.133Z,13.06
2019-02-28T11:26:06.376Z,13.06
2019-02-28T11:27:13.068Z,13.24
2019-02-28T11:28:28.002Z,12.90
2019-02-28T11:29:28.051Z,12.85
2019-02-28T11:42:52.809Z,11.83
2019-02-28T11:43:55.735Z,11.83
2019-02-28T11:44:58.653Z,12.00
2019-02-28T11:46:04.690Z,12.05
2019-02-28T11:47:11.135Z,12.05
2019-02-28T11:48:19.042Z,12.00
2019-02-28T11:49:22.045Z,12.17
2019-02-28T11:50:25.379Z,12.17
2019-02-28T11:51:30.273Z,12.22
2019-02-28T11:52:33.095Z,12.25
2019-02-28T11:53:39.557Z,12.12
2019-02-28T11:54:40.874Z,12.26
2019-02-28T11:55:46.767Z,12.15
2019-02-28T11:56:49.787Z,12.15
2019-02-28T11:57:53.400Z,12.21
2019-02-28T11:58:56.536Z,12.26
2019-02-28T12:00:02.211Z,12.48
2019-02-28T12:01:10.039Z,12.48
2019-02-28T12:02:10.047Z,12.31
2019-02-28T12:03:13.387Z,12.31
2019-02-28T12:04:16.806Z,12.20
2019-02-28T12:05:19.662Z,12.52
2019-02-28T12:06:25.758Z,12.52
2019-02-28T12:07:28.415Z,12.65
2019-02-28T12:08:31.303Z,12.66
2019-02-28T12:09:34.266Z,12.74
2019-02-28T12:10:39.638Z,13.27
2019-02-28T12:11:42.522Z,13.63
2019-02-28T12:12:45.714Z,13.63
2019-02-28T12:13:55.191Z,13.75
2019-02-28T12:14:59.300Z,13.75
2019-02-28T12:16:03.064Z,13.75
2019-02-28T12:17:07.820Z,13.89
2019-02-28T12:18:10.538Z,14.29
2019-02-28T12:19:15.827Z,14.18
2019-02-28T12:20:18.248Z,14.18
2019-02-28T12:21:21.074Z,13.77
2019-02-28T12:22:27.108Z,13.77
2019-02-28T12:23:33.514Z,13.93
2019-02-28T12:24:36.442Z,13.45
2019-02-28T12:25:42.931Z,13.32
2019-02-28T12:26:49.349Z,13.32
2019-02-28T12:27:51.318Z,13.04
2019-02-28T12:28:54.463Z,13.03
2019-02-28T12:29:57.403Z,13.04
2019-02-28T12:31:01.168Z,13.46
2019-02-28T12:32:04.390Z,13.72
2019-02-28T12:33:07.276Z,13.71
2019-02-28T12:34:12.139Z,13.95
2019-02-28T12:35:15.550Z,13.95
2019-02-28T12:36:20.191Z,14.34
2019-02-28T12:37:25.058Z,14.16
2019-02-28T12:38:41.588Z,14.16
2019-02-28T12:39:47.721Z,14.68
2019-02-28T12:40:50.911Z,15.30
2019-02-28T12:41:56.526Z,15.52
2019-02-28T12:42:59.524Z,15.64
2019-02-28T12:44:03.337Z,15.64
2019-02-28T12:45:06.801Z,15.79
2019-02-28T12:46:09.746Z,15.59
2019-02-28T12:47:12.583Z,15.59
2019-02-28T12:48:15.424Z,15.87
2019-02-28T12:49:21.761Z,15.87
2019-02-28T12:50:23.319Z,15.92
2019-02-28T12:51:27.598Z,15.69
2019-02-28T12:52:33.656Z,16.30
2019-02-28T12:53:36.940Z,16.30
2019-02-28T12:54:39.911Z,16.48
2019-02-28T12:55:43.219Z,15.95
2019-02-28T12:56:47.764Z,15.95
2019-02-28T12:57:51.717Z,16.01
2019-02-28T12:58:54.629Z,16.10
2019-02-28T12:59:57.483Z,16.10
2019-02-28T13:01:00.874Z,15.48
2019-02-28T13:02:07.440Z,15.10
2019-02-28T13:03:09.725Z,15.40
2019-02-28T13:04:12.593Z,16.02
2019-02-28T13:05:17.278Z,15.64
2019-02-28T13:06:23.445Z,15.64
2019-02-28T13:07:27.090Z,15.19
2019-02-28T13:08:34.452Z,15.62
2019-02-28T13:09:37.811Z,15.62
2019-02-28T13:10:42.809Z,15.60
2019-02-28T13:11:47.999Z,15.42
2019-02-28T13:12:51.004Z,15.42
2019-02-28T13:13:54.269Z,15.63
2019-02-28T13:14:57.560Z,15.63
2019-02-28T13:16:00.989Z,15.40
2019-02-28T13:17:03.846Z,14.97
2019-02-28T13:18:09.161Z,15.21
2019-02-28T13:19:11.332Z,15.21
2019-02-28T13:20:14.171Z,14.75
2019-02-28T13:21:17.282Z,14.75
2019-02-28T13:22:23.623Z,14.50
2019-02-28T13:23:26.505Z,14.64
2019-02-28T13:24:29.634Z,14.64
2019-02-28T13:25:32.504Z,14.40
2019-02-28T13:26:35.438Z,14.40
2019-02-28T13:27:41.542Z,14.55
2019-02-28T13:28:47.288Z,15.22
2019-02-28T13:29:53.144Z,15.22
2019-02-28T13:30:59.214Z,15.21
2019-02-28T13:32:03.826Z,15.53
2019-02-28T13:33:06.672Z,15.36
2019-02-28T13:34:25.100Z,15.36
2019-02-28T13:35:27.442Z,15.46
2019-02-28T13:36:30.770Z,15.02
2019-02-28T13:37:37.438Z,15.04
2019-02-28T13:38:38.905Z,15.04
2019-02-28T13:39:46.276Z,15.16
2019-02-28T13:40:50.594Z,15.03
2019-02-28T13:41:58.697Z,14.71
2019-02-28T13:43:01.861Z,14.71
2019-02-28T13:44:05.590Z,14.74
2019-02-28T13:45:13.262Z,14.81
2019-02-28T13:46:13.566Z,14.46
2019-02-28T13:47:16.930Z,14.94
2019-02-28T13:48:26.062Z,14.85
2019-02-28T13:49:26.968Z,14.85
2019-02-28T13:50:32.517Z,14.75
2019-02-28T13:51:42.008Z,14.70
2019-02-28T13:52:42.089Z,14.20
2019-02-28T13:53:47.698Z,14.20
2019-02-28T13:54:50.598Z,14.20
2019-02-28T13:55:57.836Z,14.27
2019-02-28T13:57:08.263Z,14.19
2019-02-28T13:58:08.740Z,14.09
2019-02-28T13:59:11.638Z,14.02
2019-02-28T14:00:15.142Z,14.23
2019-02-28T14:01:20.902Z,14.15
2019-02-28T14:02:26.320Z,14.12
2019-02-28T14:03:36.218Z,14.35
2019-02-28T14:04:39.326Z,14.32
2019-02-28T14:05:43.357Z,14.42
2019-02-28T14:06:46.294Z,14.42
2019-02-28T14:07:49.165Z,14.51
2019-02-28T14:08:55.153Z,14.51
2019-02-28T14:10:02.545Z,14.34
2019-02-28T14:11:09.694Z,14.63
2019-02-28T14:12:13.268Z,15.10
2019-02-28T14:13:18.874Z,15.13
2019-02-28T14:14:22.265Z,15.04
2019-02-28T14:15:25.471Z,14.82
2019-02-28T14:16:29.176Z,14.49
2019-02-28T14:17:35.506Z,14.19
2019-02-28T14:18:42.547Z,14.17
2019-02-28T14:19:47.437Z,14.24
2019-02-28T14:20:50.305Z,14.15
2019-02-28T14:21:56.347Z,14.07
2019-02-28T14:22:59.356Z,14.31
2019-02-28T14:24:08.830Z,14.49
2019-02-28T14:25:11.863Z,14.39
2019-02-28T14:26:14.831Z,14.34
2019-02-28T14:27:17.767Z,14.49
2019-02-28T14:28:24.927Z,14.71
2019-02-28T14:29:27.984Z,14.71